sensor_id;sensor_type;location;lat;lon;timestamp;temperature;humidity
6260;DHT22;3163;51.516;4.000;2023-05-20T00:01:07;16.60;99.90
6260;DHT22;3163;51.516;4.000;2023-05-20T00:03:33;16.60;99.90
6260;DHT22;3163;51.516;4.000;2023-05-20T00:05:58;16.60;99.90
6260;DHT22;3163;51.516;4.000;2023-05-20T00:08:24;16.70;99.90
6260;DHT22;3163;51.516;4.000;2023-05-20T00:10:50;16.60;99.90
6260;DHT22;3163;51.516;4.000;2023-05-20T00:13:15;16.60;99.90
6260;DHT22;3163;51.516;4.000;2023-05-20T00:15:42;16.70;99.90
6260;DHT22;3163;51.516;4.000;2023-05-20T00:18:08;16.70;99.90
6260;DHT22;3163;51.516;4.000;2023-05-20T00:20:33;16.60;99.90
6260;DHT22;3163;51.516;4.000;2023-05-20T00:22:59;16.70;99.90
6260;DHT22;3163;51.516;4.000;2023-05-20T00:25:25;16.60;99.90
6260;DHT22;3163;51.516;4.000;2023-05-20T00:27:51;16.60;99.90
6260;DHT22;3163;51.516;4.000;2023-05-20T00:30:16;16.50;99.90
6260;DHT22;3163;51.516;4.000;2023-05-20T00:32:42;16.50;99.90
6260;DHT22;3163;51.516;4.000;2023-05-20T00:35:08;16.50;99.90
6260;DHT22;3163;51.516;4.000;2023-05-20T00:37:35;16.50;99.90
6260;DHT22;3163;51.516;4.000;2023-05-20T00:40:00;16.50;99.90
6260;DHT22;3163;51.516;4.000;2023-05-20T00:42:27;16.50;99.90
6260;DHT22;3163;51.516;4.000;2023-05-20T00:44:53;16.60;99.90
6260;DHT22;3163;51.516;4.000;2023-05-20T00:47:30;16.50;99.90
6260;DHT22;3163;51.516;4.000;2023-05-20T00:49:58;16.50;99.90
6260;DHT22;3163;51.516;4.000;2023-05-20T00:52:24;16.60;99.90
6260;DHT22;3163;51.516;4.000;2023-05-20T00:54:50;16.50;99.90
6260;DHT22;3163;51.516;4.000;2023-05-20T00:57:17;16.50;99.90
6260;DHT22;3163;51.516;4.000;2023-05-20T00:59:43;16.50;99.90
6260;DHT22;3163;51.516;4.000;2023-05-20T01:02:09;16.50;99.90
6260;DHT22;3163;51.516;4.000;2023-05-20T01:04:35;16.50;99.90
6260;DHT22;3163;51.516;4.000;2023-05-20T01:07:02;16.50;99.90
6260;DHT22;3163;51.516;4.000;2023-05-20T01:09:29;16.40;99.90
6260;DHT22;3163;51.516;4.000;2023-05-20T01:12:10;16.50;99.90
6260;DHT22;3163;51.516;4.000;2023-05-20T01:14:43;16.40;99.90
6260;DHT22;3163;51.516;4.000;2023-05-20T01:17:11;16.40;99.90
6260;DHT22;3163;51.516;4.000;2023-05-20T01:19:46;16.40;99.90
6260;DHT22;3163;51.516;4.000;2023-05-20T01:22:13;16.50;99.90
6260;DHT22;3163;51.516;4.000;2023-05-20T01:24:48;16.40;99.90
6260;DHT22;3163;51.516;4.000;2023-05-20T01:27:14;16.40;99.90
6260;DHT22;3163;51.516;4.000;2023-05-20T01:29:40;16.40;99.90
6260;DHT22;3163;51.516;4.000;2023-05-20T01:32:12;16.40;99.90
6260;DHT22;3163;51.516;4.000;2023-05-20T01:34:40;16.40;99.90
6260;DHT22;3163;51.516;4.000;2023-05-20T01:37:07;16.30;99.90
6260;DHT22;3163;51.516;4.000;2023-05-20T01:39:35;16.40;99.90
6260;DHT22;3163;51.516;4.000;2023-05-20T01:42:07;16.40;99.90
6260;DHT22;3163;51.516;4.000;2023-05-20T01:44:33;16.30;99.90
6260;DHT22;3163;51.516;4.000;2023-05-20T01:46:59;16.30;99.90
6260;DHT22;3163;51.516;4.000;2023-05-20T01:49:26;16.40;99.90
6260;DHT22;3163;51.516;4.000;2023-05-20T01:51:51;16.30;99.90
6260;DHT22;3163;51.516;4.000;2023-05-20T01:54:17;16.40;99.90
6260;DHT22;3163;51.516;4.000;2023-05-20T01:56:44;16.40;99.90
6260;DHT22;3163;51.516;4.000;2023-05-20T01:59:10;16.40;99.90
6260;DHT22;3163;51.516;4.000;2023-05-20T02:01:36;16.30;99.90
6260;DHT22;3163;51.516;4.000;2023-05-20T02:04:01;16.30;99.90
6260;DHT22;3163;51.516;4.000;2023-05-20T02:06:27;16.30;99.90
6260;DHT22;3163;51.516;4.000;2023-05-20T02:08:52;16.20;99.90
6260;DHT22;3163;51.516;4.000;2023-05-20T02:11:18;16.20;99.90
6260;DHT22;3163;51.516;4.000;2023-05-20T02:13:44;16.20;99.90
6260;DHT22;3163;51.516;4.000;2023-05-20T02:16:10;16.20;99.90
6260;DHT22;3163;51.516;4.000;2023-05-20T02:18:35;16.20;99.90
6260;DHT22;3163;51.516;4.000;2023-05-20T02:21:04;16.20;99.90
6260;DHT22;3163;51.516;4.000;2023-05-20T02:23:30;16.20;99.90
6260;DHT22;3163;51.516;4.000;2023-05-20T02:25:56;16.20;99.90
6260;DHT22;3163;51.516;4.000;2023-05-20T02:28:22;16.20;99.90
6260;DHT22;3163;51.516;4.000;2023-05-20T02:30:47;16.20;99.90
6260;DHT22;3163;51.516;4.000;2023-05-20T02:33:15;16.20;99.90
6260;DHT22;3163;51.516;4.000;2023-05-20T02:35:41;16.20;99.90
6260;DHT22;3163;51.516;4.000;2023-05-20T02:38:06;16.20;99.90
6260;DHT22;3163;51.516;4.000;2023-05-20T02:40:32;16.20;99.90
6260;DHT22;3163;51.516;4.000;2023-05-20T02:42:59;16.20;99.90
6260;DHT22;3163;51.516;4.000;2023-05-20T02:45:25;16.20;99.90
6260;DHT22;3163;51.516;4.000;2023-05-20T02:47:51;16.10;99.90
6260;DHT22;3163;51.516;4.000;2023-05-20T02:50:17;16.20;99.90
6260;DHT22;3163;51.516;4.000;2023-05-20T02:52:42;16.10;99.90
6260;DHT22;3163;51.516;4.000;2023-05-20T02:55:10;16.10;99.90
6260;DHT22;3163;51.516;4.000;2023-05-20T02:57:36;16.10;99.90
6260;DHT22;3163;51.516;4.000;2023-05-20T03:00:07;16.10;99.90
6260;DHT22;3163;51.516;4.000;2023-05-20T03:02:35;16.10;99.90
6260;DHT22;3163;51.516;4.000;2023-05-20T03:05:01;16.10;99.90
6260;DHT22;3163;51.516;4.000;2023-05-20T03:07:28;16.10;99.90
6260;DHT22;3163;51.516;4.000;2023-05-20T03:09:53;16.10;99.90
6260;DHT22;3163;51.516;4.000;2023-05-20T03:12:19;16.00;99.90
6260;DHT22;3163;51.516;4.000;2023-05-20T03:14:44;16.10;99.90
6260;DHT22;3163;51.516;4.000;2023-05-20T03:17:10;16.10;99.90
6260;DHT22;3163;51.516;4.000;2023-05-20T03:19:36;16.10;99.90
6260;DHT22;3163;51.516;4.000;2023-05-20T03:22:02;16.10;99.90
6260;DHT22;3163;51.516;4.000;2023-05-20T03:24:28;16.10;99.90
6260;DHT22;3163;51.516;4.000;2023-05-20T03:26:54;16.10;99.90
6260;DHT22;3163;51.516;4.000;2023-05-20T03:29:21;16.00;99.90
6260;DHT22;3163;51.516;4.000;2023-05-20T03:31:47;16.00;99.90
6260;DHT22;3163;51.516;4.000;2023-05-20T03:34:13;16.00;99.90
6260;DHT22;3163;51.516;4.000;2023-05-20T03:36:38;16.00;99.90
6260;DHT22;3163;51.516;4.000;2023-05-20T03:39:04;16.00;99.90
6260;DHT22;3163;51.516;4.000;2023-05-20T03:41:30;16.00;99.90
6260;DHT22;3163;51.516;4.000;2023-05-20T03:43:56;16.00;99.90
6260;DHT22;3163;51.516;4.000;2023-05-20T03:46:21;16.00;99.90
6260;DHT22;3163;51.516;4.000;2023-05-20T03:48:47;15.90;99.90
6260;DHT22;3163;51.516;4.000;2023-05-20T03:51:12;16.00;99.90
6260;DHT22;3163;51.516;4.000;2023-05-20T03:53:38;16.00;99.90
6260;DHT22;3163;51.516;4.000;2023-05-20T03:56:04;15.90;99.90
6260;DHT22;3163;51.516;4.000;2023-05-20T03:58:29;16.00;99.90
6260;DHT22;3163;51.516;4.000;2023-05-20T04:00:56;16.00;99.90
6260;DHT22;3163;51.516;4.000;2023-05-20T04:03:21;16.00;99.90
6260;DHT22;3163;51.516;4.000;2023-05-20T04:05:49;16.00;99.90
6260;DHT22;3163;51.516;4.000;2023-05-20T04:08:14;16.10;99.90
6260;DHT22;3163;51.516;4.000;2023-05-20T04:10:41;16.10;99.90
6260;DHT22;3163;51.516;4.000;2023-05-20T04:13:10;16.10;99.90
6260;DHT22;3163;51.516;4.000;2023-05-20T04:15:36;16.10;99.90
6260;DHT22;3163;51.516;4.000;2023-05-20T04:18:05;16.10;99.90
6260;DHT22;3163;51.516;4.000;2023-05-20T04:20:31;16.20;99.90
6260;DHT22;3163;51.516;4.000;2023-05-20T04:22:57;16.20;99.90
6260;DHT22;3163;51.516;4.000;2023-05-20T04:25:23;16.20;99.90
6260;DHT22;3163;51.516;4.000;2023-05-20T04:27:49;16.20;99.90
6260;DHT22;3163;51.516;4.000;2023-05-20T04:30:14;16.10;99.90
6260;DHT22;3163;51.516;4.000;2023-05-20T04:32:43;16.00;99.90
6260;DHT22;3163;51.516;4.000;2023-05-20T04:35:08;16.20;99.90
6260;DHT22;3163;51.516;4.000;2023-05-20T04:37:37;16.20;99.90
6260;DHT22;3163;51.516;4.000;2023-05-20T04:40:03;16.30;99.90
6260;DHT22;3163;51.516;4.000;2023-05-20T04:42:31;16.30;99.90
6260;DHT22;3163;51.516;4.000;2023-05-20T04:44:58;16.40;99.90
6260;DHT22;3163;51.516;4.000;2023-05-20T04:47:26;16.40;99.90
6260;DHT22;3163;51.516;4.000;2023-05-20T04:49:54;16.40;99.90
6260;DHT22;3163;51.516;4.000;2023-05-20T04:52:22;16.50;99.90
6260;DHT22;3163;51.516;4.000;2023-05-20T04:54:48;16.50;99.90
6260;DHT22;3163;51.516;4.000;2023-05-20T04:57:15;16.50;99.90
6260;DHT22;3163;51.516;4.000;2023-05-20T04:59:41;16.50;99.90
6260;DHT22;3163;51.516;4.000;2023-05-20T05:02:07;16.50;99.90
6260;DHT22;3163;51.516;4.000;2023-05-20T05:04:33;16.30;99.90
6260;DHT22;3163;51.516;4.000;2023-05-20T05:06:58;16.20;99.90
6260;DHT22;3163;51.516;4.000;2023-05-20T05:09:24;16.00;99.90
6260;DHT22;3163;51.516;4.000;2023-05-20T05:11:49;16.30;99.90
6260;DHT22;3163;51.516;4.000;2023-05-20T05:14:15;16.40;99.90
6260;DHT22;3163;51.516;4.000;2023-05-20T05:16:41;16.50;99.90
6260;DHT22;3163;51.516;4.000;2023-05-20T05:19:07;16.50;99.90
6260;DHT22;3163;51.516;4.000;2023-05-20T05:21:33;16.60;99.90
6260;DHT22;3163;51.516;4.000;2023-05-20T05:23:58;16.50;99.90
6260;DHT22;3163;51.516;4.000;2023-05-20T05:26:24;16.70;99.90
6260;DHT22;3163;51.516;4.000;2023-05-20T05:28:52;16.70;99.90
6260;DHT22;3163;51.516;4.000;2023-05-20T05:31:18;16.70;99.90
6260;DHT22;3163;51.516;4.000;2023-05-20T05:33:44;16.60;99.90
6260;DHT22;3163;51.516;4.000;2023-05-20T05:36:09;16.60;99.90
6260;DHT22;3163;51.516;4.000;2023-05-20T05:38:35;16.60;99.90
6260;DHT22;3163;51.516;4.000;2023-05-20T05:41:01;16.20;99.90
6260;DHT22;3163;51.516;4.000;2023-05-20T05:43:26;16.10;99.90
6260;DHT22;3163;51.516;4.000;2023-05-20T05:45:52;16.30;99.90
6260;DHT22;3163;51.516;4.000;2023-05-20T05:48:17;16.40;99.90
6260;DHT22;3163;51.516;4.000;2023-05-20T05:50:44;16.60;99.90
6260;DHT22;3163;51.516;4.000;2023-05-20T05:53:11;16.70;99.90
6260;DHT22;3163;51.516;4.000;2023-05-20T05:55:36;16.70;99.90
6260;DHT22;3163;51.516;4.000;2023-05-20T05:58:02;16.80;99.90
6260;DHT22;3163;51.516;4.000;2023-05-20T06:00:28;16.80;99.90
6260;DHT22;3163;51.516;4.000;2023-05-20T06:02:53;16.80;99.90
6260;DHT22;3163;51.516;4.000;2023-05-20T06:05:19;16.80;99.90
6260;DHT22;3163;51.516;4.000;2023-05-20T06:07:44;16.80;99.90
6260;DHT22;3163;51.516;4.000;2023-05-20T06:10:10;16.90;99.90
6260;DHT22;3163;51.516;4.000;2023-05-20T06:12:36;16.70;99.90
6260;DHT22;3163;51.516;4.000;2023-05-20T06:15:01;16.40;99.90
6260;DHT22;3163;51.516;4.000;2023-05-20T06:17:27;16.30;99.90
6260;DHT22;3163;51.516;4.000;2023-05-20T06:19:52;16.40;99.90
6260;DHT22;3163;51.516;4.000;2023-05-20T06:22:18;16.60;99.90
6260;DHT22;3163;51.516;4.000;2023-05-20T06:24:44;16.70;99.90
6260;DHT22;3163;51.516;4.000;2023-05-20T06:27:09;16.80;99.90
6260;DHT22;3163;51.516;4.000;2023-05-20T06:29:35;16.70;99.90
6260;DHT22;3163;51.516;4.000;2023-05-20T06:32:00;16.80;99.90
6260;DHT22;3163;51.516;4.000;2023-05-20T06:34:26;16.80;99.90
6260;DHT22;3163;51.516;4.000;2023-05-20T06:36:52;16.80;99.90
6260;DHT22;3163;51.516;4.000;2023-05-20T06:39:18;16.90;99.90
6260;DHT22;3163;51.516;4.000;2023-05-20T06:41:43;16.80;99.90
6260;DHT22;3163;51.516;4.000;2023-05-20T06:44:09;16.80;99.90
6260;DHT22;3163;51.516;4.000;2023-05-20T06:46:35;16.70;99.90
6260;DHT22;3163;51.516;4.000;2023-05-20T06:49:00;16.40;99.90
6260;DHT22;3163;51.516;4.000;2023-05-20T06:51:26;16.40;99.90
6260;DHT22;3163;51.516;4.000;2023-05-20T06:53:52;16.50;99.90
6260;DHT22;3163;51.516;4.000;2023-05-20T06:56:18;16.60;99.90
6260;DHT22;3163;51.516;4.000;2023-05-20T06:58:44;16.70;99.90
6260;DHT22;3163;51.516;4.000;2023-05-20T07:01:09;16.80;99.90
6260;DHT22;3163;51.516;4.000;2023-05-20T07:03:35;16.90;99.90
6260;DHT22;3163;51.516;4.000;2023-05-20T07:06:00;17.00;99.90
6260;DHT22;3163;51.516;4.000;2023-05-20T07:08:26;16.90;99.90
6260;DHT22;3163;51.516;4.000;2023-05-20T07:10:54;16.90;99.90
6260;DHT22;3163;51.516;4.000;2023-05-20T07:13:20;16.90;99.90
6260;DHT22;3163;51.516;4.000;2023-05-20T07:15:48;17.00;99.90
6260;DHT22;3163;51.516;4.000;2023-05-20T07:18:14;17.10;99.90
6260;DHT22;3163;51.516;4.000;2023-05-20T07:20:40;17.30;99.90
6260;DHT22;3163;51.516;4.000;2023-05-20T07:23:06;17.10;99.90
6260;DHT22;3163;51.516;4.000;2023-05-20T07:25:31;16.90;99.90
6260;DHT22;3163;51.516;4.000;2023-05-20T07:27:57;16.70;99.90
6260;DHT22;3163;51.516;4.000;2023-05-20T07:30:25;17.10;99.90
6260;DHT22;3163;51.516;4.000;2023-05-20T07:32:51;17.40;99.90
6260;DHT22;3163;51.516;4.000;2023-05-20T07:35:16;17.40;99.90
6260;DHT22;3163;51.516;4.000;2023-05-20T07:37:42;17.40;99.90
6260;DHT22;3163;51.516;4.000;2023-05-20T07:40:08;17.40;99.90
6260;DHT22;3163;51.516;4.000;2023-05-20T07:42:34;17.60;99.90
6260;DHT22;3163;51.516;4.000;2023-05-20T07:44:59;17.60;99.90
6260;DHT22;3163;51.516;4.000;2023-05-20T07:47:25;17.70;99.90
6260;DHT22;3163;51.516;4.000;2023-05-20T07:49:51;17.90;99.90
6260;DHT22;3163;51.516;4.000;2023-05-20T07:52:16;17.90;99.90
6260;DHT22;3163;51.516;4.000;2023-05-20T07:54:42;17.90;99.90
6260;DHT22;3163;51.516;4.000;2023-05-20T07:57:07;17.70;99.90
6260;DHT22;3163;51.516;4.000;2023-05-20T07:59:33;17.30;99.90
6260;DHT22;3163;51.516;4.000;2023-05-20T08:01:59;17.50;99.90
6260;DHT22;3163;51.516;4.000;2023-05-20T08:04:24;17.50;99.90
6260;DHT22;3163;51.516;4.000;2023-05-20T08:06:52;17.80;99.90
6260;DHT22;3163;51.516;4.000;2023-05-20T08:09:17;18.10;99.90
6260;DHT22;3163;51.516;4.000;2023-05-20T08:11:43;18.20;99.90
6260;DHT22;3163;51.516;4.000;2023-05-20T08:14:09;18.20;99.90
6260;DHT22;3163;51.516;4.000;2023-05-20T08:16:35;18.30;99.90
6260;DHT22;3163;51.516;4.000;2023-05-20T08:19:01;18.40;99.90
6260;DHT22;3163;51.516;4.000;2023-05-20T08:21:27;18.50;99.90
6260;DHT22;3163;51.516;4.000;2023-05-20T08:23:53;18.40;99.90
6260;DHT22;3163;51.516;4.000;2023-05-20T08:26:18;18.30;99.90
6260;DHT22;3163;51.516;4.000;2023-05-20T08:28:44;18.40;99.90
6260;DHT22;3163;51.516;4.000;2023-05-20T08:31:09;18.40;99.90
6260;DHT22;3163;51.516;4.000;2023-05-20T08:33:35;17.70;99.90
6260;DHT22;3163;51.516;4.000;2023-05-20T08:36:00;17.50;99.90
6260;DHT22;3163;51.516;4.000;2023-05-20T08:38:26;17.70;99.90
6260;DHT22;3163;51.516;4.000;2023-05-20T08:40:56;18.30;99.90
6260;DHT22;3163;51.516;4.000;2023-05-20T08:43:22;18.50;99.90
6260;DHT22;3163;51.516;4.000;2023-05-20T08:45:48;18.80;99.90
6260;DHT22;3163;51.516;4.000;2023-05-20T08:48:17;18.70;99.90
6260;DHT22;3163;51.516;4.000;2023-05-20T08:50:45;18.70;99.90
6260;DHT22;3163;51.516;4.000;2023-05-20T08:53:14;19.00;99.90
6260;DHT22;3163;51.516;4.000;2023-05-20T08:55:46;19.00;99.90
6260;DHT22;3163;51.516;4.000;2023-05-20T08:58:14;19.40;99.90
6260;DHT22;3163;51.516;4.000;2023-05-20T09:00:40;19.70;99.90
6260;DHT22;3163;51.516;4.000;2023-05-20T09:03:06;19.40;99.90
6260;DHT22;3163;51.516;4.000;2023-05-20T09:05:33;19.10;99.90
6260;DHT22;3163;51.516;4.000;2023-05-20T09:08:09;19.10;99.90
6260;DHT22;3163;51.516;4.000;2023-05-20T09:10:37;18.70;99.90
6260;DHT22;3163;51.516;4.000;2023-05-20T09:13:03;18.60;99.90
6260;DHT22;3163;51.516;4.000;2023-05-20T09:15:30;19.30;99.90
6260;DHT22;3163;51.516;4.000;2023-05-20T09:18:02;19.60;99.90
6260;DHT22;3163;51.516;4.000;2023-05-20T09:20:28;19.70;99.90
6260;DHT22;3163;51.516;4.000;2023-05-20T09:22:58;19.80;99.90
6260;DHT22;3163;51.516;4.000;2023-05-20T09:25:24;19.50;99.90
6260;DHT22;3163;51.516;4.000;2023-05-20T09:27:49;19.90;99.90
6260;DHT22;3163;51.516;4.000;2023-05-20T09:30:19;19.60;99.90
6260;DHT22;3163;51.516;4.000;2023-05-20T09:32:51;19.50;99.90
6260;DHT22;3163;51.516;4.000;2023-05-20T09:35:16;19.30;99.90
6260;DHT22;3163;51.516;4.000;2023-05-20T09:37:45;19.60;99.90
6260;DHT22;3163;51.516;4.000;2023-05-20T09:40:12;19.30;99.90
6260;DHT22;3163;51.516;4.000;2023-05-20T09:42:43;19.40;99.90
6260;DHT22;3163;51.516;4.000;2023-05-20T09:45:09;19.40;99.90
6260;DHT22;3163;51.516;4.000;2023-05-20T09:47:37;19.70;99.90
6260;DHT22;3163;51.516;4.000;2023-05-20T09:50:06;20.20;99.90
6260;DHT22;3163;51.516;4.000;2023-05-20T09:52:36;20.20;99.90
6260;DHT22;3163;51.516;4.000;2023-05-20T09:55:02;19.50;99.90
6260;DHT22;3163;51.516;4.000;2023-05-20T09:57:33;19.10;99.90
6260;DHT22;3163;51.516;4.000;2023-05-20T09:59:59;19.40;99.90
6260;DHT22;3163;51.516;4.000;2023-05-20T10:02:26;19.80;99.90
6260;DHT22;3163;51.516;4.000;2023-05-20T10:04:53;20.40;99.90
6260;DHT22;3163;51.516;4.000;2023-05-20T10:10:50;20.40;99.90
6260;DHT22;3163;51.516;4.000;2023-05-20T10:16:43;20.10;99.90
6260;DHT22;3163;51.516;4.000;2023-05-20T10:22:25;19.60;99.90
6260;DHT22;3163;51.516;4.000;2023-05-20T10:24:57;19.50;99.90
6260;DHT22;3163;51.516;4.000;2023-05-20T10:27:23;20.00;99.90
6260;DHT22;3163;51.516;4.000;2023-05-20T10:29:51;19.70;99.90
6260;DHT22;3163;51.516;4.000;2023-05-20T10:32:27;20.00;99.90
6260;DHT22;3163;51.516;4.000;2023-05-20T10:34:58;20.00;99.90
6260;DHT22;3163;51.516;4.000;2023-05-20T10:37:29;19.80;99.90
6260;DHT22;3163;51.516;4.000;2023-05-20T10:40:08;20.60;99.90
6260;DHT22;3163;51.516;4.000;2023-05-20T10:42:35;21.00;99.90
6260;DHT22;3163;51.516;4.000;2023-05-20T10:45:01;20.90;99.90
6260;DHT22;3163;51.516;4.000;2023-05-20T10:47:27;21.00;99.90
6260;DHT22;3163;51.516;4.000;2023-05-20T10:49:53;21.30;99.90
6260;DHT22;3163;51.516;4.000;2023-05-20T10:52:19;20.90;99.90
6260;DHT22;3163;51.516;4.000;2023-05-20T10:54:58;20.70;99.90
6260;DHT22;3163;51.516;4.000;2023-05-20T10:57:27;20.00;99.90
6260;DHT22;3163;51.516;4.000;2023-05-20T10:59:54;20.10;99.90
6260;DHT22;3163;51.516;4.000;2023-05-20T11:02:21;20.20;99.90
6260;DHT22;3163;51.516;4.000;2023-05-20T11:04:55;19.80;99.90
6260;DHT22;3163;51.516;4.000;2023-05-20T11:07:28;20.00;99.90
6260;DHT22;3163;51.516;4.000;2023-05-20T11:09:57;19.80;99.90
6260;DHT22;3163;51.516;4.000;2023-05-20T11:12:24;19.80;99.90
6260;DHT22;3163;51.516;4.000;2023-05-20T11:14:49;20.00;99.90
6260;DHT22;3163;51.516;4.000;2023-05-20T11:17:22;19.60;99.90
6260;DHT22;3163;51.516;4.000;2023-05-20T11:19:49;19.60;99.90
6260;DHT22;3163;51.516;4.000;2023-05-20T11:22:15;20.60;99.90
6260;DHT22;3163;51.516;4.000;2023-05-20T11:24:40;20.80;99.90
6260;DHT22;3163;51.516;4.000;2023-05-20T11:27:06;20.20;99.90
6260;DHT22;3163;51.516;4.000;2023-05-20T11:29:32;20.40;99.90
6260;DHT22;3163;51.516;4.000;2023-05-20T11:31:58;20.60;99.90
6260;DHT22;3163;51.516;4.000;2023-05-20T11:34:24;21.20;99.90
6260;DHT22;3163;51.516;4.000;2023-05-20T11:36:57;20.90;99.90
6260;DHT22;3163;51.516;4.000;2023-05-20T11:39:24;21.00;99.90
6260;DHT22;3163;51.516;4.000;2023-05-20T11:41:51;20.90;99.90
6260;DHT22;3163;51.516;4.000;2023-05-20T11:44:19;20.70;99.90
6260;DHT22;3163;51.516;4.000;2023-05-20T11:46:46;20.70;99.90
6260;DHT22;3163;51.516;4.000;2023-05-20T11:49:13;20.30;99.90
6260;DHT22;3163;51.516;4.000;2023-05-20T11:51:39;20.70;99.90
6260;DHT22;3163;51.516;4.000;2023-05-20T11:54:06;20.60;99.90
6260;DHT22;3163;51.516;4.000;2023-05-20T11:56:36;20.50;99.90
6260;DHT22;3163;51.516;4.000;2023-05-20T11:59:03;20.70;99.90
6260;DHT22;3163;51.516;4.000;2023-05-20T12:03:58;19.80;99.90
6260;DHT22;3163;51.516;4.000;2023-05-20T12:06:23;20.10;99.90
6260;DHT22;3163;51.516;4.000;2023-05-20T12:08:49;20.10;99.90
6260;DHT22;3163;51.516;4.000;2023-05-20T12:11:15;20.80;99.90
6260;DHT22;3163;51.516;4.000;2023-05-20T12:13:41;20.80;99.90
6260;DHT22;3163;51.516;4.000;2023-05-20T12:16:06;20.70;99.90
6260;DHT22;3163;51.516;4.000;2023-05-20T12:18:33;20.80;99.90
6260;DHT22;3163;51.516;4.000;2023-05-20T12:20:59;21.00;99.90
6260;DHT22;3163;51.516;4.000;2023-05-20T12:23:25;20.80;99.90
6260;DHT22;3163;51.516;4.000;2023-05-20T12:25:50;20.70;99.90
6260;DHT22;3163;51.516;4.000;2023-05-20T12:28:16;21.00;99.90
6260;DHT22;3163;51.516;4.000;2023-05-20T12:30:42;21.30;99.90
6260;DHT22;3163;51.516;4.000;2023-05-20T12:33:08;21.70;99.90
6260;DHT22;3163;51.516;4.000;2023-05-20T12:35:40;21.50;99.90
6260;DHT22;3163;51.516;4.000;2023-05-20T12:38:06;21.40;99.90
6260;DHT22;3163;51.516;4.000;2023-05-20T12:40:33;20.40;99.90
6260;DHT22;3163;51.516;4.000;2023-05-20T12:43:00;20.90;99.90
6260;DHT22;3163;51.516;4.000;2023-05-20T12:45:26;21.10;99.90
6260;DHT22;3163;51.516;4.000;2023-05-20T12:47:53;21.00;99.90
6260;DHT22;3163;51.516;4.000;2023-05-20T12:50:19;21.20;99.90
6260;DHT22;3163;51.516;4.000;2023-05-20T12:52:45;21.60;99.90
6260;DHT22;3163;51.516;4.000;2023-05-20T12:55:10;21.90;99.90
6260;DHT22;3163;51.516;4.000;2023-05-20T12:57:44;22.10;99.90
6260;DHT22;3163;51.516;4.000;2023-05-20T13:00:11;22.10;97.00
6260;DHT22;3163;51.516;4.000;2023-05-20T13:02:38;22.20;99.10
6260;DHT22;3163;51.516;4.000;2023-05-20T13:05:04;22.20;99.10
6260;DHT22;3163;51.516;4.000;2023-05-20T13:07:30;21.70;97.40
6260;DHT22;3163;51.516;4.000;2023-05-20T13:09:57;21.10;99.90
6260;DHT22;3163;51.516;4.000;2023-05-20T13:12:23;20.90;99.90
6260;DHT22;3163;51.516;4.000;2023-05-20T13:14:48;21.10;99.90
6260;DHT22;3163;51.516;4.000;2023-05-20T13:17:14;21.60;99.90
6260;DHT22;3163;51.516;4.000;2023-05-20T13:19:40;22.00;99.90
6260;DHT22;3163;51.516;4.000;2023-05-20T13:22:05;22.20;99.80
6260;DHT22;3163;51.516;4.000;2023-05-20T13:24:33;22.10;99.90
6260;DHT22;3163;51.516;4.000;2023-05-20T13:26:59;21.60;99.90
6260;DHT22;3163;51.516;4.000;2023-05-20T13:29:26;21.60;99.90
6260;DHT22;3163;51.516;4.000;2023-05-20T13:31:51;22.20;99.70
6260;DHT22;3163;51.516;4.000;2023-05-20T13:34:17;21.40;99.90
6260;DHT22;3163;51.516;4.000;2023-05-20T13:36:43;21.30;99.90
6260;DHT22;3163;51.516;4.000;2023-05-20T13:39:10;21.20;99.90
6260;DHT22;3163;51.516;4.000;2023-05-20T13:41:35;21.70;99.90
6260;DHT22;3163;51.516;4.000;2023-05-20T13:44:01;21.10;99.90
6260;DHT22;3163;51.516;4.000;2023-05-20T13:46:27;21.20;99.90
6260;DHT22;3163;51.516;4.000;2023-05-20T13:48:52;21.50;99.90
6260;DHT22;3163;51.516;4.000;2023-05-20T13:51:18;21.40;99.90
6260;DHT22;3163;51.516;4.000;2023-05-20T13:53:43;21.70;99.90
6260;DHT22;3163;51.516;4.000;2023-05-20T13:56:09;21.80;99.90
6260;DHT22;3163;51.516;4.000;2023-05-20T13:58:35;21.40;99.90
6260;DHT22;3163;51.516;4.000;2023-05-20T14:01:02;21.50;99.90
6260;DHT22;3163;51.516;4.000;2023-05-20T14:03:31;22.00;99.90
6260;DHT22;3163;51.516;4.000;2023-05-20T14:05:58;21.90;99.90
6260;DHT22;3163;51.516;4.000;2023-05-20T14:08:24;22.00;99.90
6260;DHT22;3163;51.516;4.000;2023-05-20T14:10:49;22.00;99.90
6260;DHT22;3163;51.516;4.000;2023-05-20T14:13:22;21.40;99.90
6260;DHT22;3163;51.516;4.000;2023-05-20T14:15:48;20.80;99.90
6260;DHT22;3163;51.516;4.000;2023-05-20T14:18:19;21.30;99.90
6260;DHT22;3163;51.516;4.000;2023-05-20T14:20:44;22.20;99.90
6260;DHT22;3163;51.516;4.000;2023-05-20T14:23:11;21.90;99.90
6260;DHT22;3163;51.516;4.000;2023-05-20T14:25:37;22.00;99.90
6260;DHT22;3163;51.516;4.000;2023-05-20T14:28:03;22.40;99.90
6260;DHT22;3163;51.516;4.000;2023-05-20T14:30:28;22.20;99.90
6260;DHT22;3163;51.516;4.000;2023-05-20T14:32:54;22.20;99.90
6260;DHT22;3163;51.516;4.000;2023-05-20T14:35:20;22.10;99.90
6260;DHT22;3163;51.516;4.000;2023-05-20T14:37:46;22.00;99.90
6260;DHT22;3163;51.516;4.000;2023-05-20T14:40:11;22.00;99.90
6260;DHT22;3163;51.516;4.000;2023-05-20T14:42:37;21.50;99.90
6260;DHT22;3163;51.516;4.000;2023-05-20T14:45:03;21.80;99.90
6260;DHT22;3163;51.516;4.000;2023-05-20T14:47:29;21.90;99.90
6260;DHT22;3163;51.516;4.000;2023-05-20T14:49:55;21.40;99.90
6260;DHT22;3163;51.516;4.000;2023-05-20T14:52:21;21.80;99.90
6260;DHT22;3163;51.516;4.000;2023-05-20T14:54:47;21.70;99.90
6260;DHT22;3163;51.516;4.000;2023-05-20T14:57:13;21.90;99.90
6260;DHT22;3163;51.516;4.000;2023-05-20T14:59:40;22.00;99.90
6260;DHT22;3163;51.516;4.000;2023-05-20T15:02:06;22.00;99.90
6260;DHT22;3163;51.516;4.000;2023-05-20T15:04:32;21.80;99.90
6260;DHT22;3163;51.516;4.000;2023-05-20T15:06:58;21.80;99.90
6260;DHT22;3163;51.516;4.000;2023-05-20T15:09:24;21.90;99.90
6260;DHT22;3163;51.516;4.000;2023-05-20T15:11:50;21.80;99.90
6260;DHT22;3163;51.516;4.000;2023-05-20T15:14:16;21.80;99.90
6260;DHT22;3163;51.516;4.000;2023-05-20T15:16:42;21.60;99.90
6260;DHT22;3163;51.516;4.000;2023-05-20T15:19:09;21.40;99.90
6260;DHT22;3163;51.516;4.000;2023-05-20T15:24:01;21.20;99.90
6260;DHT22;3163;51.516;4.000;2023-05-20T15:26:28;21.60;99.90
6260;DHT22;3163;51.516;4.000;2023-05-20T15:28:54;21.60;99.90
6260;DHT22;3163;51.516;4.000;2023-05-20T15:31:20;21.20;99.90
6260;DHT22;3163;51.516;4.000;2023-05-20T15:33:45;21.10;99.90
6260;DHT22;3163;51.516;4.000;2023-05-20T15:36:11;21.00;99.90
6260;DHT22;3163;51.516;4.000;2023-05-20T15:38:37;21.00;99.90
6260;DHT22;3163;51.516;4.000;2023-05-20T15:41:02;21.20;99.90
6260;DHT22;3163;51.516;4.000;2023-05-20T15:43:28;21.30;99.90
6260;DHT22;3163;51.516;4.000;2023-05-20T15:45:54;21.00;99.90
6260;DHT22;3163;51.516;4.000;2023-05-20T15:48:20;21.00;99.90
6260;DHT22;3163;51.516;4.000;2023-05-20T15:50:46;21.10;99.90
6260;DHT22;3163;51.516;4.000;2023-05-20T15:53:13;21.10;99.90
6260;DHT22;3163;51.516;4.000;2023-05-20T15:55:39;20.90;99.90
6260;DHT22;3163;51.516;4.000;2023-05-20T15:58:04;20.90;99.90
6260;DHT22;3163;51.516;4.000;2023-05-20T16:00:30;21.00;99.90
6260;DHT22;3163;51.516;4.000;2023-05-20T16:02:56;21.10;99.90
6260;DHT22;3163;51.516;4.000;2023-05-20T16:05:22;21.10;99.90
6260;DHT22;3163;51.516;4.000;2023-05-20T16:07:51;21.10;99.90
6260;DHT22;3163;51.516;4.000;2023-05-20T16:10:18;21.20;99.90
6260;DHT22;3163;51.516;4.000;2023-05-20T16:12:43;21.00;99.90